Time;durP1;ratioP1;P1;durP2;ratioP2;P2;SDS_P1;SDS_P2;PMS_P1;PMS_P2;Temp;Humidity;BMP_temperature;BMP_pressure;BME280_temperature;BME280_humidity;BME280_pressure;Samples;Min_cycle;Max_cycle;Signal;HPM_P1;HPM_P2
2021/08/11 00:00:31;;;;;;;2.53;2.30;;;;;22.70;100717.00;;;;2063148;28;20314;-56
2021/08/11 00:01:31;;;;;;;2.80;2.60;;;;;22.70;100726.00;;;;2071253;28;20229;-56
2021/08/11 00:02:31;;;;;;;2.77;2.57;;;;;22.70;100730.00;;;;2070877;28;20206;-57
2021/08/11 00:03:33;;;;;;;3.17;2.77;;;;;22.70;100725.00;;;;2063420;28;20286;-56
2021/08/11 00:04:33;;;;;;;3.33;2.78;;;;;22.70;100723.00;;;;2063084;28;20693;-55
2021/08/11 00:05:33;;;;;;;2.80;2.60;;;;;22.70;100733.00;;;;2065252;28;20215;-57
2021/08/11 00:06:34;;;;;;;3.90;2.90;;;;;22.70;100723.00;;;;2071172;28;20214;-57
2021/08/11 00:07:34;;;;;;;3.20;2.90;;;;;22.70;100725.00;;;;2064430;28;20210;-57
2021/08/11 00:08:34;;;;;;;2.57;2.37;;;;;22.70;100722.00;;;;2070761;28;20292;-58
2021/08/11 00:09:35;;;;;;;2.70;2.50;;;;;22.70;100728.00;;;;2067500;28;20206;-55
2021/08/11 00:10:35;;;;;;;3.20;2.90;;;;;22.80;100727.00;;;;2070981;28;20218;-57
2021/08/11 00:11:35;;;;;;;3.33;3.03;;;;;22.70;100726.00;;;;2071055;28;20218;-55
2021/08/11 00:12:36;;;;;;;3.57;3.00;;;;;22.70;100725.00;;;;2069179;28;20218;-57
2021/08/11 00:13:36;;;;;;;3.30;3.03;;;;;22.70;100729.00;;;;2063165;28;20715;-56
2021/08/11 00:14:36;;;;;;;3.53;3.10;;;;;22.70;100724.00;;;;2063079;28;20243;-57
2021/08/11 00:15:37;;;;;;;3.57;2.73;;;;;22.70;100729.00;;;;2063184;28;20211;-55
2021/08/11 00:16:37;;;;;;;4.10;2.70;;;;;22.70;100720.00;;;;2070913;28;20219;-56
2021/08/11 00:17:38;;;;;;;2.83;2.63;;;;;22.70;100730.00;;;;2071108;28;20217;-56
2021/08/11 00:18:38;;;;;;;3.47;3.17;;;;;22.70;100727.00;;;;2086964;28;20213;-56
2021/08/11 00:19:38;;;;;;;3.77;3.47;;;;;22.70;100723.00;;;;2087151;28;20679;-56
2021/08/11 00:20:39;;;;;;;5.43;2.60;;;;;22.80;100718.00;;;;2071234;28;20586;-57
2021/08/11 00:21:39;;;;;;;3.43;3.13;;;;;22.70;100723.00;;;;2071335;28;20233;-54
2021/08/11 00:22:39;;;;;;;2.97;2.77;;;;;22.70;100722.00;;;;2067412;28;20709;-55
2021/08/11 00:23:40;;;;;;;3.43;3.13;;;;;22.70;100726.00;;;;2070975;28;20229;-56
2021/08/11 00:24:40;;;;;;;3.47;3.17;;;;;22.70;100712.00;;;;2063051;28;20214;-56
2021/08/11 00:25:41;;;;;;;2.80;2.60;;;;;22.70;100711.00;;;;2062978;28;20219;-55
2021/08/11 00:26:41;;;;;;;3.17;2.87;;;;;22.70;100719.00;;;;2063154;28;20226;-57
2021/08/11 00:27:41;;;;;;;2.73;2.53;;;;;22.70;100720.00;;;;2063009;28;20223;-54
2021/08/11 00:28:42;;;;;;;2.80;2.60;;;;;22.70;100724.00;;;;2062898;28;20215;-55
2021/08/11 00:29:42;;;;;;;3.17;2.87;;;;;22.70;100720.00;;;;2064143;28;20223;-56
2021/08/11 00:30:42;;;;;;;3.20;3.00;;;;;22.70;100715.00;;;;2065698;28;20215;-56
2021/08/11 00:31:43;;;;;;;3.60;3.30;;;;;22.70;100721.00;;;;2065754;28;20222;-57
2021/08/11 00:32:43;;;;;;;3.60;2.83;;;;;22.70;100716.00;;;;2070036;28;20206;-56
2021/08/11 00:33:43;;;;;;;3.07;2.87;;;;;22.70;100712.00;;;;2062978;28;20218;-56
2021/08/11 00:34:44;;;;;;;2.83;2.60;;;;;22.70;100713.00;;;;2063087;28;20307;-54
2021/08/11 00:35:44;;;;;;;3.90;2.83;;;;;22.70;100718.00;;;;2062933;28;20219;-57
2021/08/11 00:36:44;;;;;;;3.20;2.90;;;;;22.70;100721.00;;;;2063116;28;20710;-57
2021/08/11 00:37:45;;;;;;;3.30;3.00;;;;;22.70;100713.00;;;;2063045;28;20462;-57
2021/08/11 00:38:45;;;;;;;3.27;2.97;;;;;22.70;100721.00;;;;2066839;28;20322;-56
2021/08/11 00:39:45;;;;;;;2.70;2.50;;;;;22.70;100720.00;;;;2067224;28;20225;-56
2021/08/11 00:40:46;;;;;;;2.80;2.60;;;;;22.70;100716.00;;;;2070588;28;20237;-55
2021/08/11 00:41:46;;;;;;;3.87;3.50;;;;;22.70;100722.00;;;;2071050;28;20279;-56
2021/08/11 00:42:47;;;;;;;3.30;3.03;;;;;22.70;100714.00;;;;2071128;28;20325;-56
2021/08/11 00:43:47;;;;;;;2.83;2.63;;;;;22.70;100713.00;;;;2067744;28;20207;-56
2021/08/11 00:44:47;;;;;;;3.60;3.30;;;;;22.70;100712.00;;;;2062908;28;20591;-54
2021/08/11 00:45:48;;;;;;;4.27;3.90;;;;;22.70;100724.00;;;;2067169;28;20214;-56
2021/08/11 00:46:50;;;;;;;3.10;2.70;;;;;22.70;100721.00;;;;2070987;28;20214;-55
2021/08/11 00:47:51;;;;;;;4.22;3.83;;;;;22.70;100721.00;;;;2071157;28;20217;-55
2021/08/11 00:48:51;;;;;;;3.17;2.87;;;;;22.70;100720.00;;;;2065017;28;20239;-56
2021/08/11 00:49:51;;;;;;;3.57;3.27;;;;;22.70;100710.00;;;;2062013;28;20525;-56
2021/08/11 00:50:52;;;;;;;3.80;3.33;;;;;22.70;100727.00;;;;2061996;28;20256;-57
2021/08/11 00:51:52;;;;;;;3.33;3.03;;;;;22.70;100721.00;;;;2069770;28;20221;-54
2021/08/11 00:52:53;;;;;;;4.27;3.87;;;;;22.70;100722.00;;;;2066058;28;20290;-55
2021/08/11 00:53:53;;;;;;;3.70;3.10;;;;;22.70;100727.00;;;;2063016;28;20657;-57
2021/08/11 00:54:53;;;;;;;3.70;3.40;;;;;22.70;100726.00;;;;2068221;28;20294;-56
2021/08/11 00:55:55;;;;;;;5.20;3.30;;;;;22.70;100727.00;;;;2069954;28;20210;-57
2021/08/11 00:56:55;;;;;;;4.75;3.15;;;;;22.70;100722.00;;;;2063392;28;20222;-55
2021/08/11 00:57:55;;;;;;;3.67;3.37;;;;;22.70;100718.00;;;;2062395;28;20639;-55
2021/08/11 00:58:56;;;;;;;3.97;3.67;;;;;22.70;100721.00;;;;2062224;28;20214;-56
2021/08/11 00:59:56;;;;;;;4.30;3.90;;;;;22.70;100724.00;;;;2063864;28;20289;-56
2021/08/11 01:00:57;;;;;;;4.07;3.67;;;;;22.70;100729.00;;;;2064872;28;20232;-55
2021/08/11 01:01:57;;;;;;;4.30;3.80;;;;;22.70;100728.00;;;;2064382;28;20217;-56
2021/08/11 01:02:58;;;;;;;3.10;2.90;;;;;22.70;100727.00;;;;2064317;28;20214;-55
2021/08/11 01:04:01;;;;;;;3.90;3.50;;;;;22.70;100723.00;;;;2072834;28;20209;-56
2021/08/11 01:05:01;;;;;;;4.07;3.78;;;;;22.70;100728.00;;;;2073781;28;20234;-56
2021/08/11 01:06:03;;;;;;;4.27;3.87;;;;;22.70;100728.00;;;;2066460;28;20631;-55
2021/08/11 01:07:03;;;;;;;3.50;3.20;;;;;22.70;100720.00;;;;2066107;28;20250;-56
2021/08/11 01:08:04;;;;;;;4.13;3.73;;;;;22.70;100733.00;;;;2064370;28;20241;-56
2021/08/11 01:09:04;;;;;;;3.73;3.43;;;;;22.70;100729.00;;;;2061561;28;20564;-57
2021/08/11 01:10:05;;;;;;;4.20;3.80;;;;;22.70;100731.00;;;;2061491;28;20223;-57
2021/08/11 01:11:06;;;;;;;4.53;3.85;;;;;22.70;100740.00;;;;2069181;28;20647;-56
2021/08/11 01:12:06;;;;;;;4.37;3.97;;;;;22.70;100733.00;;;;2066647;28;20226;-56
2021/08/11 01:13:10;;;;;;;4.30;3.83;;;;;22.70;100734.00;;;;2062910;28;20218;-56
2021/08/11 01:14:12;;;;;;;4.03;3.63;;;;;22.70;100725.00;;;;2063123;28;20451;-57
2021/08/11 01:15:12;;;;;;;4.60;4.07;;;;;22.70;100733.00;;;;2062011;28;20340;-56
2021/08/11 01:16:13;;;;;;;4.13;3.83;;;;;22.70;100732.00;;;;2061826;28;20715;-57
2021/08/11 01:17:13;;;;;;;4.53;4.13;;;;;22.70;100727.00;;;;2062310;28;20261;-55
2021/08/11 01:18:14;;;;;;;4.50;4.00;;;;;22.70;100727.00;;;;2062455;28;20219;-55
2021/08/11 01:19:17;;;;;;;3.63;3.33;;;;;22.70;100729.00;;;;2067625;28;20524;-56
2021/08/11 01:20:18;;;;;;;5.22;4.72;;;;;22.70;100726.00;;;;2066568;28;20214;-55
2021/08/11 01:21:28;;;;;;;4.97;4.47;;;;;22.70;100734.00;;;;2062838;28;20319;-57
2021/08/11 01:22:47;;;;;;;4.38;3.97;;;;;22.70;100731.00;;;;2062830;28;20238;-55
2021/08/11 01:23:55;;;;;;;4.20;3.83;;;;;22.70;100732.00;;;;2059613;28;20276;-54
2021/08/11 01:25:05;;;;;;;4.53;4.13;;;;;22.70;100731.00;;;;2067228;28;20222;-55
2021/08/11 01:26:19;;;;;;;4.10;3.70;;;;;22.70;100736.00;;;;2070237;28;20796;-55
2021/08/11 01:27:28;;;;;;;4.50;4.10;;;;;22.70;100733.00;;;;2061895;28;20764;-57
2021/08/11 01:28:45;;;;;;;5.55;5.13;;;;;22.70;100736.00;;;;2064426;28;21072;-55
2021/08/11 01:30:00;;;;;;;4.50;4.10;;;;;22.70;100737.00;;;;2064953;28;20218;-55
2021/08/11 01:31:12;;;;;;;4.75;3.97;;;;;22.70;100737.00;;;;2061951;28;20214;-56
2021/08/11 01:32:28;;;;;;;4.20;3.85;;;;;22.70;100738.00;;;;2057524;28;20227;-57
2021/08/11 01:33:31;;;;;;;3.97;3.67;;;;;22.70;100731.00;;;;2057244;28;20289;-56
2021/08/11 01:34:36;;;;;;;4.35;3.95;;;;;22.70;100738.00;;;;2053582;28;20331;-56
2021/08/11 01:35:47;;;;;;;4.75;4.35;;;;;22.70;100733.00;;;;2057099;28;20211;-55
2021/08/11 01:36:51;;;;;;;5.10;4.63;;;;;22.70;100735.00;;;;2046717;28;20327;-56
2021/08/11 01:37:53;;;;;;;4.70;4.30;;;;;22.70;100728.00;;;;2043643;28;20219;-55
2021/08/11 01:39:07;;;;;;;6.47;5.10;;;;;22.70;100735.00;;;;2059732;28;20373;-55
2021/08/11 01:40:09;;;;;;;5.35;4.72;;;;;22.70;100734.00;;;;2047735;28;20692;-56
2021/08/11 01:41:09;;;;;;;6.00;5.40;;;;;22.70;100745.00;;;;2050295;28;20588;-59
2021/08/11 01:42:14;;;;;;;4.30;3.90;;;;;22.70;100742.00;;;;2060611;28;20226;-58
2021/08/11 01:43:14;;;;;;;4.93;4.53;;;;;22.70;100739.00;;;;2057053;28;20847;-56
2021/08/11 01:44:14;;;;;;;5.03;4.63;;;;;22.70;100739.00;;;;2053282;28;20215;-55
2021/08/11 01:45:16;;;;;;;4.83;4.30;;;;;22.70;100746.00;;;;2060025;28;20350;-55
2021/08/11 01:46:16;;;;;;;5.47;4.97;;;;;22.70;100739.00;;;;2052227;28;20222;-57
2021/08/11 01:47:18;;;;;;;4.80;4.30;;;;;22.70;100740.00;;;;2059371;28;20214;-54
2021/08/11 01:48:23;;;;;;;5.57;5.07;;;;;22.70;100738.00;;;;2053818;28;20234;-55
2021/08/11 01:49:23;;;;;;;5.00;4.60;;;;;22.70;100739.00;;;;2053963;28;20312;-57
2021/08/11 01:50:24;;;;;;;5.43;4.93;;;;;22.70;100739.00;;;;2053072;28;20592;-56
2021/08/11 01:51:24;;;;;;;4.73;4.33;;;;;22.70;100742.00;;;;2045382;28;20208;-55
2021/08/11 01:52:24;;;;;;;5.37;4.87;;;;;22.70;100739.00;;;;2061448;28;20211;-54
2021/08/11 01:53:25;;;;;;;5.57;4.80;;;;;22.70;100739.00;;;;2065918;28;20289;-56
2021/08/11 01:54:25;;;;;;;6.20;5.60;;;;;22.70;100745.00;;;;2041928;28;20217;-55
2021/08/11 01:55:26;;;;;;;5.13;4.50;;;;;22.70;100750.00;;;;2054630;28;20448;-56
2021/08/11 01:56:26;;;;;;;5.27;4.77;;;;;22.70;100744.00;;;;2060994;28;20214;-56
2021/08/11 01:57:26;;;;;;;6.20;5.60;;;;;22.70;100746.00;;;;2053547;28;20223;-54
2021/08/11 01:58:28;;;;;;;5.40;4.90;;;;;22.70;100743.00;;;;2059915;28;20291;-54
2021/08/11 01:59:28;;;;;;;5.75;5.25;;;;;22.70;100746.00;;;;2057998;28;20211;-55
2021/08/11 02:00:29;;;;;;;5.23;4.73;;;;;22.70;100745.00;;;;2067845;28;20698;-54
2021/08/11 02:01:29;;;;;;;5.70;5.20;;;;;22.70;100743.00;;;;2063050;28;20569;-56
2021/08/11 02:02:30;;;;;;;5.23;4.80;;;;;22.70;100748.00;;;;2069836;28;20206;-56
2021/08/11 02:03:30;;;;;;;4.20;3.90;;;;;22.70;100749.00;;;;2062051;28;20369;-57
2021/08/11 02:04:30;;;;;;;4.83;4.43;;;;;22.70;100750.00;;;;2055042;28;20208;-55
2021/08/11 02:05:31;;;;;;;4.37;4.07;;;;;22.70;100741.00;;;;2055306;28;20227;-55
2021/08/11 02:06:31;;;;;;;4.50;4.10;;;;;22.70;100748.00;;;;2057781;28;20246;-55
2021/08/11 02:07:32;;;;;;;4.53;4.20;;;;;22.80;100749.00;;;;2058700;28;20310;-55
2021/08/11 02:08:33;;;;;;;5.15;4.65;;;;;22.70;100740.00;;;;2062630;28;20222;-56
2021/08/11 02:09:33;;;;;;;3.80;3.50;;;;;22.70;100747.00;;;;2070837;28;20305;-54
2021/08/11 02:10:34;;;;;;;6.93;5.30;;;;;22.70;100734.00;;;;2058880;28;20223;-55
2021/08/11 02:11:38;;;;;;;4.47;4.07;;;;;22.70;100742.00;;;;2056343;28;20862;-55
2021/08/11 02:12:38;;;;;;;5.10;4.70;;;;;22.70;100749.00;;;;2058285;28;20215;-56
2021/08/11 02:13:39;;;;;;;5.63;4.77;;;;;22.70;100741.00;;;;2070921;28;20782;-56
2021/08/11 02:14:40;;;;;;;5.75;5.25;;;;;22.70;100737.00;;;;2064530;28;20703;-55
2021/08/11 02:15:41;;;;;;;5.20;4.70;;;;;22.70;100745.00;;;;2066084;28;20376;-56
2021/08/11 02:16:41;;;;;;;5.33;4.77;;;;;22.70;100740.00;;;;2056917;28;20251;-56
2021/08/11 02:17:41;;;;;;;3.97;3.60;;;;;22.70;100733.00;;;;2058106;28;20220;-54
2021/08/11 02:18:42;;;;;;;5.57;5.07;;;;;22.70;100739.00;;;;2056001;28;20227;-55
2021/08/11 02:19:42;;;;;;;5.03;4.53;;;;;22.70;100737.00;;;;2064086;28;20306;-55
2021/08/11 02:20:43;;;;;;;6.30;5.70;;;;;22.70;100739.00;;;;2059338;28;20218;-56
2021/08/11 02:21:43;;;;;;;5.40;4.90;;;;;22.70;100739.00;;;;2056297;28;20220;-54
2021/08/11 02:22:43;;;;;;;4.70;4.30;;;;;22.70;100745.00;;;;2056746;28;20230;-56
2021/08/11 02:23:44;;;;;;;5.50;5.00;;;;;22.70;100740.00;;;;2068111;28;20219;-55
2021/08/11 02:24:44;;;;;;;4.93;4.53;;;;;22.70;100735.00;;;;2066828;28;20261;-54
2021/08/11 02:25:48;;;;;;;4.87;4.40;;;;;22.70;100737.00;;;;2068834;28;20310;-55
2021/08/11 02:27:01;;;;;;;6.30;5.65;;;;;22.70;100734.00;;;;2059157;28;20542;-56
2021/08/11 02:28:08;;;;;;;6.80;6.20;;;;;22.70;100741.00;;;;2064709;28;20222;-57
2021/08/11 02:29:32;;;;;;;6.70;6.00;;;;;22.70;100742.00;;;;2063597;28;20233;-56
2021/08/11 02:30:57;;;;;;;7.10;6.38;;;;;22.70;100730.00;;;;2066665;28;20596;-56
2021/08/11 02:32:16;;;;;;;5.20;4.80;;;;;22.70;100729.00;;;;2057765;28;20211;-56
2021/08/11 02:33:35;;;;;;;5.95;4.95;;;;;22.80;100738.00;;;;2058957;28;20670;-55
2021/08/11 02:35:18;;;;;;;8.50;5.13;;;;;22.80;100736.00;;;;2063375;28;20695;-57
2021/08/11 02:36:26;;;;;;;5.07;4.68;;;;;22.80;100734.00;;;;2037527;29;20330;-56
2021/08/11 02:37:54;;;;;;;5.25;4.68;;;;;22.80;100739.00;;;;2032360;28;20218;-55
2021/08/11 02:38:58;;;;;;;4.30;4.00;;;;;22.80;100739.00;;;;2050089;28;20295;-55
2021/08/11 02:40:15;;;;;;;4.10;3.60;;;;;22.80;100734.00;;;;2055764;28;20222;-56
2021/08/11 02:41:23;;;;;;;4.85;4.45;;;;;22.80;100734.00;;;;2066895;28;20210;-57
2021/08/11 02:42:29;;;;;;;4.70;4.30;;;;;22.80;100732.00;;;;2063043;28;20219;-55
2021/08/11 02:43:52;;;;;;;3.80;3.50;;;;;22.80;100736.00;;;;2055793;28;20208;-55
2021/08/11 02:44:54;;;;;;;5.47;4.53;;;;;22.80;100739.00;;;;2058607;28;20849;-56
2021/08/11 02:45:57;;;;;;;4.70;4.30;;;;;22.80;100733.00;;;;2063022;28;20232;-56
2021/08/11 02:46:57;;;;;;;5.15;4.30;;;;;22.80;100734.00;;;;2063430;28;20219;-57
2021/08/11 02:47:59;;;;;;;5.53;5.03;;;;;22.80;100732.00;;;;2070964;28;20320;-57
2021/08/11 02:49:02;;;;;;;3.72;3.42;;;;;22.80;100737.00;;;;2063311;28;20218;-56
2021/08/11 02:50:02;;;;;;;4.78;4.30;;;;;22.80;100736.00;;;;2070674;28;20276;-56
2021/08/11 02:51:03;;;;;;;3.87;3.57;;;;;22.80;100735.00;;;;2062917;28;20855;-56
2021/08/11 02:52:03;;;;;;;4.90;4.50;;;;;22.80;100737.00;;;;2065106;28;20249;-54
2021/08/11 02:53:04;;;;;;;3.77;3.47;;;;;22.80;100739.00;;;;2061431;28;20234;-56
2021/08/11 02:54:11;;;;;;;4.63;4.23;;;;;22.80;100724.00;;;;2075238;28;20214;-56
2021/08/11 02:55:11;;;;;;;4.55;4.15;;;;;22.80;100724.00;;;;2074983;28;20225;-55
2021/08/11 02:56:13;;;;;;;4.23;3.83;;;;;22.80;100737.00;;;;2058721;28;20317;-55
2021/08/11 02:57:13;;;;;;;5.97;4.40;;;;;22.80;100730.00;;;;2055018;28;20290;-55
2021/08/11 02:58:14;;;;;;;4.50;4.10;;;;;22.80;100734.00;;;;2059728;28;20231;-55
2021/08/11 02:59:14;;;;;;;4.10;3.80;;;;;22.80;100735.00;;;;2053568;28;20814;-56
2021/08/11 03:00:15;;;;;;;4.90;4.50;;;;;22.80;100729.00;;;;2064487;28;20670;-57
2021/08/11 03:01:15;;;;;;;4.70;4.30;;;;;22.80;100730.00;;;;2075181;28;20271;-54
2021/08/11 03:02:15;;;;;;;4.20;3.80;;;;;22.80;100724.00;;;;2058715;28;20220;-56
2021/08/11 03:03:16;;;;;;;3.60;3.30;;;;;22.80;100733.00;;;;2060502;28;20261;-55
2021/08/11 03:04:16;;;;;;;3.90;3.60;;;;;22.80;100733.00;;;;2062173;28;20223;-56
2021/08/11 03:05:17;;;;;;;4.27;3.97;;;;;22.80;100733.00;;;;2063020;28;20226;-56
2021/08/11 03:06:17;;;;;;;5.07;4.57;;;;;22.80;100730.00;;;;2054434;28;20670;-54
2021/08/11 03:07:17;;;;;;;3.70;3.40;;;;;22.80;100723.00;;;;2061984;28;20218;-55
2021/08/11 03:08:18;;;;;;;7.20;4.20;;;;;22.80;100726.00;;;;2063044;28;20318;-55
2021/08/11 03:09:21;;;;;;;4.10;3.77;;;;;22.80;100728.00;;;;2070623;28;20328;-56
2021/08/11 03:10:22;;;;;;;4.57;4.18;;;;;22.80;100725.00;;;;2070050;28;20218;-54
2021/08/11 03:11:22;;;;;;;4.15;3.85;;;;;22.80;100732.00;;;;2064988;28;20290;-55
2021/08/11 03:12:23;;;;;;;3.90;3.60;;;;;22.80;100734.00;;;;2063443;28;20306;-57
2021/08/11 03:13:23;;;;;;;3.90;3.60;;;;;22.80;100735.00;;;;2066509;28;20534;-54
2021/08/11 03:14:23;;;;;;;4.60;3.73;;;;;22.80;100727.00;;;;2063076;28;20269;-54
2021/08/11 03:15:24;;;;;;;4.10;3.80;;;;;22.80;100734.00;;;;2054587;28;20219;-60
2021/08/11 03:16:25;;;;;;;3.90;3.60;;;;;22.80;100728.00;;;;2078583;28;20210;-57
2021/08/11 03:17:25;;;;;;;5.50;4.57;;;;;22.80;100733.00;;;;2076733;28;21087;-56
2021/08/11 03:18:26;;;;;;;4.67;4.27;;;;;22.70;100727.00;;;;2063706;28;20622;-55
2021/08/11 03:19:26;;;;;;;4.40;4.00;;;;;22.80;100719.00;;;;2066065;28;20602;-55
2021/08/11 03:20:27;;;;;;;5.60;5.10;;;;;22.80;100720.00;;;;2078439;28;20217;-55
2021/08/11 03:21:27;;;;;;;4.33;3.93;;;;;22.80;100724.00;;;;2079082;28;20210;-56
2021/08/11 03:22:28;;;;;;;5.37;4.90;;;;;22.80;100724.00;;;;2069665;28;20702;-54
2021/08/11 03:23:28;;;;;;;5.43;4.93;;;;;22.80;100723.00;;;;2063311;28;20211;-54
2021/08/11 03:24:28;;;;;;;9.40;8.30;;;;;22.80;100727.00;;;;2069138;28;20288;-54
2021/08/11 03:25:29;;;;;;;10.87;9.77;;;;;22.80;100724.00;;;;2065233;28;20235;-54
2021/08/11 03:26:29;;;;;;;9.60;8.70;;;;;22.80;100729.00;;;;2067064;28;20218;-54
2021/08/11 03:27:30;;;;;;;10.07;9.10;;;;;22.80;100728.00;;;;2063192;28;20215;-56
2021/08/11 03:28:30;;;;;;;16.87;15.07;;;;;22.80;100727.00;;;;2071091;28;20260;-54
2021/08/11 03:29:30;;;;;;;13.97;12.50;;;;;22.80;100732.00;;;;2071521;28;20214;-54
2021/08/11 03:30:31;;;;;;;10.20;9.20;;;;;22.80;100732.00;;;;2067257;28;20213;-55
2021/08/11 03:31:31;;;;;;;15.47;13.90;;;;;22.80;100732.00;;;;2071263;28;20385;-56
2021/08/11 03:32:31;;;;;;;11.43;10.37;;;;;22.80;100732.00;;;;2066349;28;20215;-57
2021/08/11 03:33:32;;;;;;;18.03;16.13;;;;;22.80;100729.00;;;;2064514;28;20699;-56
2021/08/11 03:34:32;;;;;;;19.33;17.27;;;;;22.80;100738.00;;;;2063516;28;20322;-54
2021/08/11 03:35:33;;;;;;;15.40;13.80;;;;;22.80;100739.00;;;;2070893;28;20214;-55
2021/08/11 03:36:33;;;;;;;11.00;9.93;;;;;22.80;100744.00;;;;2070438;28;20214;-56
2021/08/11 03:37:34;;;;;;;16.43;14.07;;;;;22.80;100742.00;;;;2069149;28;20214;-56
2021/08/11 03:38:34;;;;;;;26.70;22.90;;;;;22.80;100742.00;;;;2069063;28;20450;-55
2021/08/11 03:39:34;;;;;;;23.10;20.67;;;;;22.80;100731.00;;;;2065307;28;20349;-53
2021/08/11 03:40:35;;;;;;;22.10;17.93;;;;;22.80;100743.00;;;;2066656;28;20226;-56
2021/08/11 03:41:35;;;;;;;29.63;25.30;;;;;22.80;100737.00;;;;2067354;28;20214;-57
2021/08/11 03:42:35;;;;;;;19.27;17.17;;;;;22.80;100732.00;;;;2063368;28;20219;-56
2021/08/11 03:43:36;;;;;;;21.30;19.00;;;;;22.80;100740.00;;;;2066476;28;20214;-56
2021/08/11 03:44:36;;;;;;;32.97;29.10;;;;;22.80;100735.00;;;;2064731;28;20298;-56
2021/08/11 03:45:37;;;;;;;19.23;17.13;;;;;22.80;100744.00;;;;2071450;28;20229;-55
2021/08/11 03:46:37;;;;;;;26.83;24.03;;;;;22.80;100741.00;;;;2065182;28;20688;-56
2021/08/11 03:47:41;;;;;;;26.60;22.60;;;;;22.80;100747.00;;;;2065678;28;20215;-56
2021/08/11 03:48:41;;;;;;;34.25;30.55;;;;;22.80;100746.00;;;;2070825;28;20210;-55
2021/08/11 03:49:45;;;;;;;36.33;31.50;;;;;22.80;100744.00;;;;2064042;28;20578;-57
2021/08/11 03:50:45;;;;;;;26.25;22.70;;;;;22.80;100742.00;;;;2066955;28;20217;-57
2021/08/11 03:51:46;;;;;;;27.67;22.20;;;;;22.80;100742.00;;;;2069529;28;20225;-57
2021/08/11 03:52:47;;;;;;;36.93;33.00;;;;;22.80;100744.00;;;;2063233;28;20211;-56
2021/08/11 03:53:47;;;;;;;29.20;26.00;;;;;22.80;100746.00;;;;2065339;28;20317;-54
2021/08/11 03:54:47;;;;;;;39.10;34.90;;;;;22.80;100746.00;;;;2067573;28;20215;-56
2021/08/11 03:55:48;;;;;;;31.00;26.97;;;;;22.80;100743.00;;;;2067402;28;20218;-56
2021/08/11 03:56:48;;;;;;;36.90;32.80;;;;;22.80;100743.00;;;;2071402;28;20218;-55
2021/08/11 03:57:48;;;;;;;32.47;28.63;;;;;22.80;100746.00;;;;2070553;28;20210;-57
2021/08/11 03:58:49;;;;;;;32.83;29.37;;;;;22.80;100751.00;;;;2068684;28;20215;-55
2021/08/11 03:59:49;;;;;;;35.63;31.83;;;;;22.80;100748.00;;;;2064447;28;20206;-55
2021/08/11 04:00:50;;;;;;;32.80;29.27;;;;;22.80;100749.00;;;;2064486;28;20210;-54
2021/08/11 04:01:51;;;;;;;40.43;35.43;;;;;22.80;100753.00;;;;2066615;28;20218;-57
2021/08/11 04:02:51;;;;;;;37.47;33.47;;;;;22.80;100750.00;;;;2070674;28;20218;-56
2021/08/11 04:03:52;;;;;;;42.27;37.67;;;;;22.80;100748.00;;;;2064277;28;20834;-56
2021/08/11 04:04:52;;;;;;;38.57;33.33;;;;;22.80;100745.00;;;;2065718;28;20230;-55
2021/08/11 04:05:52;;;;;;;41.47;36.47;;;;;22.80;100752.00;;;;2062972;28;20219;-56
2021/08/11 04:06:53;;;;;;;37.23;32.23;;;;;22.80;100751.00;;;;2069455;28;20328;-56
2021/08/11 04:07:53;;;;;;;38.60;34.40;;;;;22.80;100749.00;;;;2068094;28;20206;-56
2021/08/11 04:08:53;;;;;;;41.30;36.13;;;;;22.80;100744.00;;;;2066801;28;20297;-54
2021/08/11 04:09:54;;;;;;;40.43;36.10;;;;;22.80;100757.00;;;;2071258;28;20221;-56
2021/08/11 04:10:54;;;;;;;41.47;36.93;;;;;22.70;100755.00;;;;2067170;28;20321;-56
2021/08/11 04:11:54;;;;;;;41.53;36.70;;;;;22.80;100748.00;;;;2065557;28;20214;-55
2021/08/11 04:12:55;;;;;;;42.17;37.23;;;;;22.80;100753.00;;;;2063317;28;20235;-53
2021/08/11 04:13:55;;;;;;;35.53;30.53;;;;;22.80;100752.00;;;;2062839;28;20215;-55
2021/08/11 04:14:55;;;;;;;38.80;33.20;;;;;22.80;100748.00;;;;2066717;28;20218;-56
2021/08/11 04:15:56;;;;;;;37.03;32.07;;;;;22.80;100745.00;;;;2063145;28;20358;-55
2021/08/11 04:16:56;;;;;;;36.57;31.80;;;;;22.80;100748.00;;;;2063020;28;20218;-55
2021/08/11 04:17:56;;;;;;;39.70;33.37;;;;;22.80;100750.00;;;;2067046;28;20221;-56
2021/08/11 04:18:57;;;;;;;40.57;33.50;;;;;22.80;100745.00;;;;2066478;28;20262;-55
2021/08/11 04:19:57;;;;;;;39.23;33.63;;;;;22.80;100750.00;;;;2069330;28;20870;-54
2021/08/11 04:20:57;;;;;;;38.37;32.37;;;;;22.80;100744.00;;;;2062818;28;20668;-54
2021/08/11 04:21:58;;;;;;;39.37;32.63;;;;;22.80;100749.00;;;;2069839;28;20556;-54
2021/08/11 04:22:58;;;;;;;41.00;33.00;;;;;22.80;100748.00;;;;2070608;28;20268;-56
2021/08/11 04:23:59;;;;;;;36.47;31.30;;;;;22.80;100746.00;;;;2070534;28;20215;-56
2021/08/11 04:24:59;;;;;;;35.47;31.00;;;;;22.80;100743.00;;;;2071029;28;20217;-55
2021/08/11 04:25:59;;;;;;;50.73;32.70;;;;;22.80;100748.00;;;;2070990;28;20218;-54
2021/08/11 04:27:00;;;;;;;67.43;30.93;;;;;22.80;100741.00;;;;2065161;28;20206;-58
2021/08/11 04:28:00;;;;;;;48.87;30.10;;;;;22.90;100741.00;;;;2068501;28;20684;-54
2021/08/11 04:29:00;;;;;;;52.90;32.20;;;;;22.80;100756.00;;;;2071138;28;20589;-56
2021/08/11 04:30:00;;;;;;;52.43;32.20;;;;;22.80;100754.00;;;;2067750;28;20242;-57
2021/08/11 04:31:01;;;;;;;64.50;33.20;;;;;22.80;100743.00;;;;2066547;28;20249;-57
2021/08/11 04:32:02;;;;;;;46.93;33.30;;;;;22.80;100748.00;;;;2067193;28;20215;-56
2021/08/11 04:33:02;;;;;;;52.67;30.93;;;;;22.80;100743.00;;;;2067217;28;20222;-54
2021/08/11 04:34:02;;;;;;;42.47;31.37;;;;;22.80;100739.00;;;;2066745;28;20218;-54
2021/08/11 04:35:07;;;;;;;51.23;32.43;;;;;22.80;100743.00;;;;2067206;28;20226;-57
2021/08/11 04:36:07;;;;;;;39.15;29.45;;;;;22.80;100744.00;;;;2063173;28;20227;-56
2021/08/11 04:37:07;;;;;;;44.30;30.27;;;;;22.80;100745.00;;;;2058998;28;20208;-58
2021/08/11 04:38:08;;;;;;;44.57;29.70;;;;;22.80;100750.00;;;;2066154;28;20241;-58
2021/08/11 04:39:08;;;;;;;43.37;31.33;;;;;22.80;100741.00;;;;2067335;28;20370;-58
2021/08/11 04:40:09;;;;;;;41.77;30.73;;;;;22.80;100749.00;;;;2062441;28;20214;-57
2021/08/11 04:41:12;;;;;;;43.43;33.20;;;;;22.80;100751.00;;;;2056692;28;20227;-57
2021/08/11 04:42:12;;;;;;;44.13;33.40;;;;;22.80;100754.00;;;;2062182;28;20218;-57
2021/08/11 04:43:13;;;;;;;42.87;33.23;;;;;22.80;100747.00;;;;2059515;28;20221;-56
2021/08/11 04:44:13;;;;;;;57.50;39.43;;;;;22.80;100754.00;;;;2054864;28;20211;-57
2021/08/11 04:45:14;;;;;;;42.30;36.90;;;;;22.80;100753.00;;;;2063133;28;20219;-57
2021/08/11 04:46:14;;;;;;;48.70;39.93;;;;;22.80;100750.00;;;;2062761;28;20237;-58
2021/08/11 04:47:15;;;;;;;54.83;42.57;;;;;22.80;100751.00;;;;2057770;28;20642;-56
2021/08/11 04:48:15;;;;;;;58.80;45.87;;;;;22.80;100745.00;;;;2055662;28;20216;-54
2021/08/11 04:49:15;;;;;;;66.43;48.57;;;;;22.70;100741.00;;;;2061862;28;20215;-55
2021/08/11 04:50:16;;;;;;;62.17;46.00;;;;;22.70;100749.00;;;;2061928;28;20211;-58
2021/08/11 04:51:16;;;;;;;62.67;47.63;;;;;22.80;100751.00;;;;2061941;28;20290;-57
2021/08/11 04:52:16;;;;;;;68.57;49.93;;;;;22.80;100755.00;;;;2064021;28;20249;-56
2021/08/11 04:53:17;;;;;;;64.40;49.23;;;;;22.80;100750.00;;;;2065789;28;20575;-56
2021/08/11 04:54:17;;;;;;;72.73;51.73;;;;;22.80;100751.00;;;;2065161;28;20226;-57
2021/08/11 04:55:17;;;;;;;65.13;51.73;;;;;22.80;100757.00;;;;2059674;28;20214;-55
2021/08/11 04:56:19;;;;;;;73.00;53.50;;;;;22.80;100749.00;;;;2064203;28;20219;-57
2021/08/11 04:57:19;;;;;;;60.65;47.47;;;;;22.80;100761.00;;;;2063304;28;20210;-58
2021/08/11 04:58:19;;;;;;;59.93;49.37;;;;;22.80;100753.00;;;;2060239;28;20561;-56
2021/08/11 04:59:20;;;;;;;66.90;51.80;;;;;22.80;100760.00;;;;2061520;28;20626;-56
2021/08/11 05:00:20;;;;;;;68.37;52.13;;;;;22.80;100760.00;;;;2058375;28;20234;-56
2021/08/11 05:01:20;;;;;;;69.23;53.03;;;;;22.80;100762.00;;;;2059183;28;20211;-57
2021/08/11 05:02:21;;;;;;;67.40;50.27;;;;;22.80;100765.00;;;;2061620;28;20223;-58
2021/08/11 05:03:21;;;;;;;61.73;49.73;;;;;22.80;100765.00;;;;2058284;28;20636;-59